createdAt,value
2018-07-07T00:00:17.522Z,18.66
2018-07-07T00:02:44.797Z,18.66
2018-07-07T00:05:12.137Z,18.66
2018-07-07T00:07:40.159Z,18.58
2018-07-07T00:10:08.300Z,18.58
2018-07-07T00:12:35.642Z,18.24
2018-07-07T00:15:03.113Z,18.17
2018-07-07T00:17:30.504Z,18.04
2018-07-07T00:19:57.862Z,17.97
2018-07-07T00:22:25.278Z,17.87
2018-07-07T00:24:52.551Z,17.77
2018-07-07T00:27:19.949Z,17.70
2018-07-07T00:29:47.795Z,17.64
2018-07-07T00:32:15.164Z,17.65
2018-07-07T00:34:42.598Z,17.60
2018-07-07T00:37:09.908Z,17.52
2018-07-07T00:39:37.288Z,17.46
2018-07-07T00:42:04.644Z,17.39
2018-07-07T00:44:31.940Z,17.34
2018-07-07T00:46:59.356Z,17.33
2018-07-07T00:49:26.723Z,17.33
2018-07-07T00:51:54.071Z,17.29
2018-07-07T00:54:21.394Z,17.29
2018-07-07T00:56:48.672Z,17.24
2018-07-07T00:59:16.020Z,17.21
2018-07-07T01:01:43.327Z,17.19
2018-07-07T01:04:10.652Z,17.14
2018-07-07T01:06:38.103Z,17.29
2018-07-07T01:09:05.579Z,17.34
2018-07-07T01:11:32.975Z,17.44
2018-07-07T01:14:00.328Z,17.45
2018-07-07T01:16:27.652Z,17.55
2018-07-07T01:18:55.005Z,17.63
2018-07-07T01:21:22.791Z,17.61
2018-07-07T01:23:50.458Z,17.60
2018-07-07T01:26:17.843Z,17.58
2018-07-07T01:28:45.225Z,17.67
2018-07-07T01:31:12.550Z,17.55
2018-07-07T01:33:39.887Z,17.58
2018-07-07T01:36:12.467Z,17.59
2018-07-07T01:38:44.852Z,17.63
2018-07-07T01:41:12.141Z,17.58
2018-07-07T01:43:39.462Z,17.48
2018-07-07T01:46:06.830Z,17.45
2018-07-07T01:48:34.157Z,17.44
2018-07-07T01:51:01.454Z,17.36
2018-07-07T01:53:28.788Z,17.34
2018-07-07T01:55:56.153Z,17.32
2018-07-07T01:58:23.464Z,17.30
2018-07-07T02:00:50.695Z,17.38
2018-07-07T02:03:18.019Z,17.38
2018-07-07T02:05:45.354Z,17.32
2018-07-07T02:08:12.686Z,17.31
2018-07-07T02:10:40.052Z,17.33
2018-07-07T02:13:07.396Z,17.31
2018-07-07T02:15:34.761Z,17.32
2018-07-07T02:18:02.007Z,17.29
2018-07-07T02:20:29.344Z,17.23
2018-07-07T02:22:56.614Z,17.22
2018-07-07T02:25:23.926Z,17.16
2018-07-07T02:27:51.211Z,17.20
2018-07-07T02:30:18.533Z,17.21
2018-07-07T02:32:45.873Z,17.18
2018-07-07T02:35:13.217Z,17.16
2018-07-07T02:37:40.515Z,17.24
2018-07-07T02:40:07.903Z,17.27
2018-07-07T02:42:35.214Z,17.32
2018-07-07T02:45:02.517Z,17.42
2018-07-07T02:47:29.835Z,17.46
2018-07-07T02:49:57.420Z,17.44
2018-07-07T02:52:24.764Z,17.45
2018-07-07T02:54:52.140Z,17.53
2018-07-07T02:57:19.408Z,17.54
2018-07-07T02:59:47.053Z,17.55
2018-07-07T03:02:14.407Z,17.58
2018-07-07T03:04:41.782Z,17.52
2018-07-07T03:07:09.108Z,17.42
2018-07-07T03:09:36.406Z,17.28
2018-07-07T03:12:03.738Z,17.29
2018-07-07T03:14:31.189Z,17.35
2018-07-07T03:16:58.565Z,17.32
2018-07-07T03:19:25.915Z,17.28
2018-07-07T03:21:53.199Z,17.30
2018-07-07T03:24:20.555Z,17.27
2018-07-07T03:26:47.883Z,17.33
2018-07-07T03:29:15.171Z,17.33
2018-07-07T03:31:42.580Z,17.36
2018-07-07T03:34:09.886Z,17.32
2018-07-07T03:36:37.230Z,17.28
2018-07-07T03:39:05.671Z,17.22
2018-07-07T03:41:33.002Z,17.23
2018-07-07T03:44:00.255Z,17.27
2018-07-07T03:46:27.683Z,17.25
2018-07-07T03:48:54.931Z,17.25
2018-07-07T03:51:22.215Z,17.26
2018-07-07T03:53:49.537Z,17.36
2018-07-07T03:56:16.815Z,17.42
2018-07-07T03:58:44.170Z,17.38
2018-07-07T04:01:11.568Z,17.23
2018-07-07T04:03:38.842Z,17.18
2018-07-07T04:06:06.123Z,17.22
2018-07-07T04:08:33.458Z,17.25
2018-07-07T04:11:00.773Z,17.25
2018-07-07T04:13:28.063Z,17.29
2018-07-07T04:15:55.337Z,17.20
2018-07-07T04:18:39.636Z,17.22
2018-07-07T04:21:06.961Z,17.25
2018-07-07T04:23:34.775Z,17.24
2018-07-07T04:26:02.365Z,17.26
2018-07-07T04:28:30.154Z,17.27
2018-07-07T04:30:57.694Z,17.36
2018-07-07T04:33:25.663Z,17.16
2018-07-07T04:35:52.960Z,17.07
2018-07-07T04:38:20.320Z,17.06
2018-07-07T04:40:48.184Z,17.05
2018-07-07T04:43:15.852Z,17.20
2018-07-07T04:45:43.261Z,17.29
2018-07-07T04:48:10.615Z,17.36
2018-07-07T04:50:37.961Z,17.53
2018-07-07T04:53:05.640Z,17.65
2018-07-07T04:55:32.975Z,17.76
2018-07-07T04:58:00.335Z,17.81
2018-07-07T05:00:27.801Z,17.86
2018-07-07T05:02:55.137Z,17.52
2018-07-07T05:05:22.427Z,17.46
2018-07-07T05:07:49.749Z,17.54
2018-07-07T05:10:17.098Z,17.60
2018-07-07T05:12:44.467Z,17.53
2018-07-07T05:15:11.757Z,17.53
2018-07-07T05:17:39.097Z,17.78
2018-07-07T05:20:06.512Z,17.90
2018-07-07T05:22:33.770Z,17.81
2018-07-07T05:25:01.480Z,17.66
2018-07-07T05:27:28.760Z,17.90
2018-07-07T05:29:56.067Z,17.94
2018-07-07T05:32:23.395Z,18.10
2018-07-07T05:34:50.695Z,18.21
2018-07-07T05:37:18.014Z,18.39
2018-07-07T05:39:45.486Z,18.33
2018-07-07T05:42:12.761Z,18.38
2018-07-07T05:44:40.100Z,18.42
2018-07-07T05:47:07.959Z,18.52
2018-07-07T05:49:35.416Z,18.67
2018-07-07T05:52:02.874Z,18.88
2018-07-07T05:54:30.164Z,19.05
2018-07-07T05:56:57.574Z,19.22
2018-07-07T05:59:24.915Z,19.42
2018-07-07T06:01:52.192Z,19.50
2018-07-07T06:04:19.625Z,19.47
2018-07-07T06:06:46.929Z,19.51
2018-07-07T06:09:14.354Z,19.61
2018-07-07T06:11:41.735Z,19.74
2018-07-07T06:14:09.023Z,19.64
2018-07-07T06:16:36.321Z,19.69
2018-07-07T06:19:03.610Z,19.73
2018-07-07T06:21:31.040Z,19.86
2018-07-07T06:23:58.335Z,19.98
2018-07-07T06:26:26.024Z,20.08
2018-07-07T06:28:53.331Z,20.20
2018-07-07T06:31:20.661Z,20.32
2018-07-07T06:33:48.097Z,20.60
2018-07-07T06:36:15.498Z,20.69
2018-07-07T06:38:43.051Z,20.70
2018-07-07T06:41:10.367Z,20.84
2018-07-07T06:43:37.797Z,20.96
2018-07-07T06:46:10.355Z,21.04
2018-07-07T06:48:42.854Z,21.12
2018-07-07T06:51:10.085Z,21.15
2018-07-07T06:53:37.523Z,21.28
2018-07-07T07:15:44.913Z,21.38
2018-07-07T07:20:48.315Z,22.11
2018-07-07T07:23:15.575Z,22.23
2018-07-07T07:25:42.818Z,22.44
2018-07-07T07:28:10.086Z,22.29
2018-07-07T07:30:37.399Z,22.28
2018-07-07T07:33:04.911Z,22.38
2018-07-07T07:35:32.199Z,22.53
2018-07-07T07:37:59.489Z,22.67
2018-07-07T07:40:26.841Z,22.84
2018-07-07T07:42:54.124Z,23.15
2018-07-07T07:45:21.541Z,23.32
2018-07-07T07:47:48.890Z,23.50
2018-07-07T07:50:16.192Z,23.66
2018-07-07T07:52:43.483Z,23.59
2018-07-07T07:55:11.004Z,23.65
2018-07-07T07:57:38.245Z,23.62
2018-07-07T08:00:05.560Z,23.78
2018-07-07T08:02:32.870Z,24.12
2018-07-07T08:05:00.241Z,24.19
2018-07-07T08:07:27.972Z,23.99
2018-07-07T08:09:55.296Z,23.74
2018-07-07T08:12:22.747Z,23.69
2018-07-07T08:14:51.738Z,23.76
2018-07-07T08:17:19.112Z,24.02
2018-07-07T08:19:46.426Z,24.25
2018-07-07T08:22:13.730Z,24.03
2018-07-07T08:24:41.093Z,23.92
2018-07-07T08:27:08.417Z,24.08
2018-07-07T08:29:35.916Z,24.31
2018-07-07T08:32:03.263Z,24.57
2018-07-07T08:34:30.666Z,24.67
2018-07-07T08:36:57.905Z,24.55
2018-07-07T08:39:25.263Z,24.49
2018-07-07T08:41:52.682Z,24.68
2018-07-07T08:44:19.931Z,24.82
2018-07-07T08:46:47.266Z,25.00
2018-07-07T08:49:14.575Z,25.13
2018-07-07T08:51:41.912Z,25.02
2018-07-07T08:54:09.217Z,24.89
2018-07-07T08:56:36.502Z,24.63
2018-07-07T08:59:03.971Z,25.06
2018-07-07T09:01:31.268Z,25.47
2018-07-07T09:03:58.629Z,25.69
2018-07-07T09:06:26.074Z,25.60
2018-07-07T09:08:53.493Z,25.41
2018-07-07T09:11:20.858Z,25.46
2018-07-07T09:13:48.150Z,25.81
2018-07-07T09:16:15.595Z,26.28
2018-07-07T09:18:42.841Z,26.58
2018-07-07T09:21:10.171Z,26.55
2018-07-07T09:23:37.509Z,25.98
2018-07-07T09:26:05.059Z,26.66
2018-07-07T09:28:32.355Z,26.91
2018-07-07T09:30:59.995Z,27.46
2018-07-07T09:33:27.347Z,27.68
2018-07-07T09:35:54.652Z,27.52
2018-07-07T09:38:22.038Z,27.31
2018-07-07T09:40:49.400Z,27.57
2018-07-07T09:43:16.728Z,27.67
2018-07-07T09:45:44.063Z,27.53
2018-07-07T09:48:11.358Z,27.07
2018-07-07T09:50:38.655Z,27.22
2018-07-07T09:53:06.032Z,27.34
2018-07-07T09:55:33.371Z,27.61
2018-07-07T09:58:00.631Z,27.71
2018-07-07T10:00:33.729Z,27.88
2018-07-07T10:03:01.011Z,27.88
2018-07-07T10:05:28.240Z,27.90
2018-07-07T10:07:55.530Z,27.91
2018-07-07T10:10:22.843Z,27.59
2018-07-07T10:12:50.231Z,27.33
2018-07-07T10:15:17.534Z,27.42
2018-07-07T10:17:44.829Z,27.54
2018-07-07T10:20:12.191Z,28.02
2018-07-07T10:22:39.449Z,27.54
2018-07-07T10:25:06.723Z,27.74
2018-07-07T10:27:34.073Z,27.51
2018-07-07T10:30:01.418Z,27.14
2018-07-07T10:32:28.744Z,27.19
2018-07-07T10:34:56.338Z,26.75
2018-07-07T10:37:23.658Z,26.65
2018-07-07T10:39:51.061Z,26.92
2018-07-07T10:42:18.312Z,27.63
2018-07-07T10:44:45.617Z,27.88
2018-07-07T10:47:13.004Z,27.89
2018-07-07T10:49:40.615Z,27.92
2018-07-07T10:52:08.163Z,28.08
2018-07-07T10:54:35.562Z,28.19
2018-07-07T10:57:02.800Z,28.32
2018-07-07T10:59:30.138Z,28.46
2018-07-07T11:01:57.334Z,28.56
2018-07-07T11:04:24.657Z,28.55
2018-07-07T11:06:51.946Z,28.34
2018-07-07T11:09:19.209Z,28.85
2018-07-07T11:11:46.539Z,29.33
2018-07-07T11:14:13.812Z,28.86
2018-07-07T11:16:41.035Z,28.58
2018-07-07T11:19:08.343Z,28.13
2018-07-07T11:21:35.699Z,28.34
2018-07-07T11:24:03.117Z,28.65
2018-07-07T11:26:30.427Z,28.81
2018-07-07T11:28:57.690Z,29.25
2018-07-07T11:31:25.003Z,29.24
2018-07-07T11:33:52.334Z,29.20
2018-07-07T11:36:19.650Z,29.30
2018-07-07T11:38:46.880Z,29.13
2018-07-07T11:41:16.333Z,29.11
2018-07-07T11:43:43.926Z,29.11
2018-07-07T11:46:11.312Z,29.21
2018-07-07T11:48:38.726Z,28.74
2018-07-07T11:51:06.146Z,27.96
2018-07-07T11:53:33.420Z,27.73
2018-07-07T11:56:00.704Z,27.58
2018-07-07T11:58:27.985Z,27.24
2018-07-07T12:00:55.334Z,26.68
2018-07-07T12:03:22.645Z,26.65
2018-07-07T12:05:49.986Z,26.54
2018-07-07T12:08:17.333Z,26.54
2018-07-07T12:10:44.583Z,26.57
2018-07-07T12:13:12.046Z,26.58
2018-07-07T12:15:39.366Z,26.78
2018-07-07T12:18:06.637Z,27.33
2018-07-07T12:20:34.028Z,27.58
2018-07-07T12:23:01.259Z,27.86
2018-07-07T12:25:28.562Z,28.03
2018-07-07T12:27:55.904Z,28.06
2018-07-07T12:30:23.255Z,28.47
2018-07-07T12:32:50.575Z,28.91
2018-07-07T12:35:17.860Z,29.23
2018-07-07T12:37:47.200Z,29.82
2018-07-07T12:40:17.457Z,30.12
2018-07-07T12:42:44.779Z,30.21
2018-07-07T12:45:13.624Z,30.60
2018-07-07T12:47:40.867Z,30.33
2018-07-07T12:50:08.249Z,30.22
2018-07-07T12:52:35.751Z,29.90
2018-07-07T12:55:03.189Z,29.82
2018-07-07T12:57:30.495Z,29.85
2018-07-07T12:59:57.775Z,30.01
2018-07-07T13:02:25.048Z,29.98
2018-07-07T13:04:52.303Z,30.32
2018-07-07T13:07:19.600Z,31.01
2018-07-07T13:09:46.920Z,30.79
2018-07-07T13:12:14.216Z,30.11
2018-07-07T13:14:41.483Z,30.43
2018-07-07T13:17:08.847Z,30.61
2018-07-07T13:19:36.122Z,30.48
2018-07-07T13:22:03.476Z,30.38
2018-07-07T13:24:30.809Z,30.55
2018-07-07T13:26:58.228Z,30.38
2018-07-07T13:29:25.553Z,29.96
2018-07-07T13:31:52.962Z,30.32
2018-07-07T13:34:20.369Z,30.52
2018-07-07T13:36:47.688Z,30.95
2018-07-07T13:39:14.949Z,31.25
2018-07-07T13:41:42.211Z,31.71
2018-07-07T13:44:09.551Z,31.71
2018-07-07T13:46:36.843Z,31.26
2018-07-07T13:49:04.098Z,30.75
2018-07-07T13:51:31.435Z,30.88
2018-07-07T13:53:58.799Z,30.69
2018-07-07T13:56:27.667Z,30.94
2018-07-07T13:58:55.207Z,30.86
2018-07-07T14:01:22.563Z,30.44
2018-07-07T14:03:49.888Z,30.75
2018-07-07T14:06:17.185Z,31.11
2018-07-07T14:08:44.498Z,31.33
2018-07-07T14:11:11.778Z,31.41
2018-07-07T14:13:39.106Z,31.60
2018-07-07T14:16:06.514Z,31.73
2018-07-07T14:18:33.874Z,31.50
2018-07-07T14:21:01.158Z,31.73
2018-07-07T14:23:28.499Z,31.37
2018-07-07T14:25:55.866Z,31.29
2018-07-07T14:28:23.135Z,31.14
2018-07-07T14:30:50.460Z,30.89
2018-07-07T14:33:17.777Z,30.89
2018-07-07T14:35:45.044Z,30.85
2018-07-07T14:38:12.305Z,30.73
2018-07-07T14:40:49.608Z,30.81
2018-07-07T14:43:16.932Z,30.99
2018-07-07T14:45:54.405Z,31.10
2018-07-07T14:48:21.712Z,31.10
2018-07-07T14:50:48.932Z,31.15
2018-07-07T14:53:16.238Z,31.49
2018-07-07T14:55:43.492Z,31.50
2018-07-07T14:58:10.988Z,31.34
2018-07-07T15:00:38.224Z,30.84
2018-07-07T15:03:05.533Z,30.30
2018-07-07T15:05:32.884Z,30.16
2018-07-07T15:08:00.253Z,30.18
2018-07-07T15:10:27.589Z,30.25
2018-07-07T15:12:54.882Z,30.25
2018-07-07T15:15:22.175Z,30.51
2018-07-07T15:17:49.464Z,30.82
2018-07-07T15:20:16.788Z,30.92
2018-07-07T15:22:44.176Z,30.85
2018-07-07T15:25:11.546Z,30.87
2018-07-07T15:27:38.957Z,30.72
2018-07-07T15:30:07.150Z,30.49
2018-07-07T15:32:34.570Z,30.11
2018-07-07T15:35:01.883Z,29.15
2018-07-07T15:37:29.225Z,28.62
2018-07-07T15:39:56.494Z,28.28
2018-07-07T15:42:23.885Z,28.25
2018-07-07T15:44:51.196Z,28.41
2018-07-07T15:47:18.419Z,28.50
2018-07-07T15:49:45.713Z,28.60
2018-07-07T15:52:13.053Z,28.60
2018-07-07T15:54:40.303Z,28.54
2018-07-07T15:57:07.608Z,28.99
2018-07-07T15:59:34.941Z,29.51
2018-07-07T16:02:02.260Z,29.47
2018-07-07T16:04:29.581Z,28.85
2018-07-07T16:06:56.895Z,29.23
2018-07-07T16:09:24.178Z,29.32
2018-07-07T16:11:51.434Z,29.17
2018-07-07T16:14:18.799Z,28.79
2018-07-07T16:16:46.154Z,28.78
2018-07-07T16:19:13.436Z,28.41
2018-07-07T16:21:40.817Z,28.30
2018-07-07T16:24:08.172Z,28.35
2018-07-07T16:26:35.750Z,28.51
2018-07-07T16:29:02.971Z,28.59
2018-07-07T16:31:30.263Z,28.58
2018-07-07T16:33:57.647Z,28.24
2018-07-07T16:36:24.990Z,28.12
2018-07-07T16:38:52.313Z,27.77
2018-07-07T16:41:19.611Z,27.69
2018-07-07T16:43:47.022Z,27.51
2018-07-07T16:46:14.486Z,27.33
2018-07-07T16:48:41.875Z,27.29
2018-07-07T16:51:09.792Z,27.06
2018-07-07T16:53:37.062Z,26.93
2018-07-07T16:56:04.815Z,26.77
2018-07-07T16:58:33.156Z,26.65
2018-07-07T17:01:00.424Z,26.62
2018-07-07T17:03:27.739Z,26.71
2018-07-07T17:05:55.060Z,26.65
2018-07-07T17:08:22.608Z,26.60
2018-07-07T17:10:49.959Z,26.55
2018-07-07T17:13:17.321Z,26.54
2018-07-07T17:15:44.618Z,26.50
2018-07-07T17:18:12.070Z,26.59
2018-07-07T17:20:39.373Z,26.65
2018-07-07T17:23:06.761Z,26.73
2018-07-07T17:25:34.134Z,26.69
2018-07-07T17:28:01.710Z,26.12
2018-07-07T17:30:29.107Z,26.62
2018-07-07T17:32:56.849Z,26.55
2018-07-07T17:35:24.469Z,26.62
2018-07-07T17:37:51.798Z,26.49
2018-07-07T17:40:19.076Z,26.51
2018-07-07T17:42:46.515Z,26.40
2018-07-07T17:45:13.986Z,26.45
2018-07-07T17:47:44.719Z,26.43
2018-07-07T17:50:15.632Z,26.44
2018-07-07T17:52:43.125Z,26.44
2018-07-07T17:55:11.450Z,26.36
2018-07-07T17:57:38.802Z,26.32
2018-07-07T18:00:06.373Z,26.20
2018-07-07T18:02:33.687Z,26.19
2018-07-07T18:05:00.981Z,26.08
2018-07-07T18:07:28.445Z,26.18
2018-07-07T18:09:55.836Z,26.19
2018-07-07T18:12:23.287Z,26.13
2018-07-07T18:14:51.492Z,26.05
2018-07-07T18:17:18.820Z,26.02
2018-07-07T18:19:46.116Z,26.00
2018-07-07T18:22:13.498Z,25.94
2018-07-07T18:24:40.841Z,25.81
2018-07-07T18:27:08.178Z,25.79
2018-07-07T18:29:35.839Z,25.70
2018-07-07T18:32:03.083Z,25.55
2018-07-07T18:34:30.315Z,25.49
2018-07-07T18:36:57.670Z,25.38
2018-07-07T18:39:24.965Z,25.23
2018-07-07T18:41:52.245Z,25.02
2018-07-07T18:44:19.554Z,24.93
2018-07-07T18:46:46.847Z,24.85
2018-07-07T18:49:14.273Z,24.69
2018-07-07T18:51:41.662Z,24.59
2018-07-07T18:54:08.948Z,24.58
2018-07-07T18:56:36.277Z,24.52
2018-07-07T18:59:03.574Z,24.42
2018-07-07T19:01:30.906Z,24.32
2018-07-07T19:03:58.189Z,24.30
2018-07-07T19:06:25.489Z,24.33
2018-07-07T19:08:58.374Z,24.25
2018-07-07T19:11:25.702Z,24.14
2018-07-07T19:13:53.058Z,24.08
2018-07-07T19:16:20.335Z,24.01
2018-07-07T19:18:47.745Z,23.91
2018-07-07T19:21:20.711Z,23.85
2018-07-07T19:23:53.861Z,23.77
2018-07-07T19:26:26.761Z,23.71
2018-07-07T19:28:54.022Z,23.66
2018-07-07T19:31:21.517Z,23.63
2018-07-07T19:33:54.450Z,23.61
2018-07-07T19:36:27.665Z,23.56
2018-07-07T19:38:54.942Z,23.52
2018-07-07T19:41:22.305Z,23.50
2018-07-07T19:43:49.774Z,23.45
2018-07-07T19:46:17.203Z,23.29
2018-07-07T19:48:44.414Z,23.22
2018-07-07T19:51:11.818Z,23.17
2018-07-07T19:53:39.177Z,23.04
2018-07-07T19:56:06.466Z,22.97
2018-07-07T19:58:33.727Z,22.94
2018-07-07T20:01:01.015Z,22.93
2018-07-07T20:03:28.400Z,22.86
2018-07-07T20:05:55.716Z,22.79
2018-07-07T20:08:23.044Z,22.78
2018-07-07T20:10:50.384Z,22.68
2018-07-07T20:13:17.687Z,22.62
2018-07-07T20:17:30.030Z,22.62
2018-07-07T20:20:34.444Z,22.54
2018-07-07T20:23:02.919Z,22.46
2018-07-07T20:25:30.263Z,22.36
2018-07-07T20:28:03.573Z,22.26
2018-07-07T20:30:30.961Z,22.26
2018-07-07T20:32:58.247Z,22.28
2018-07-07T20:35:25.551Z,22.27
2018-07-07T20:37:52.872Z,22.20
2018-07-07T20:40:20.146Z,22.20
2018-07-07T20:42:47.504Z,22.14
2018-07-07T20:45:14.819Z,22.07
2018-07-07T20:47:42.217Z,22.06
2018-07-07T20:50:09.595Z,22.06
2018-07-07T20:52:36.921Z,22.03
2018-07-07T20:55:04.213Z,22.06
2018-07-07T20:57:31.497Z,22.07
2018-07-07T20:59:58.756Z,22.03
2018-07-07T21:02:26.061Z,22.02
2018-07-07T21:04:53.354Z,22.03
2018-07-07T21:07:20.724Z,21.98
2018-07-07T21:09:47.982Z,21.96
2018-07-07T21:12:15.287Z,21.96
2018-07-07T21:14:43.363Z,21.90
2018-07-07T21:17:13.754Z,21.92
2018-07-07T21:19:41.038Z,21.85
2018-07-07T21:22:11.639Z,21.83
2018-07-07T21:24:44.008Z,21.87
2018-07-07T21:27:11.292Z,21.85
2018-07-07T21:29:38.609Z,21.80
2018-07-07T21:32:06.043Z,21.71
2018-07-07T21:34:33.229Z,21.55
2018-07-07T21:37:00.535Z,21.54
2018-07-07T21:39:27.898Z,21.50
2018-07-07T21:41:55.238Z,21.49
2018-07-07T21:44:22.574Z,21.28
2018-07-07T21:46:49.918Z,21.31
2018-07-07T21:49:17.087Z,21.33
2018-07-07T21:51:44.422Z,21.25
2018-07-07T21:54:11.706Z,21.27
2018-07-07T21:56:39.085Z,21.32
2018-07-07T21:59:12.088Z,21.34
2018-07-07T22:01:56.904Z,21.32
2018-07-07T22:04:30.613Z,21.27
2018-07-07T22:07:04.075Z,21.21
2018-07-07T22:09:32.535Z,21.18
2018-07-07T22:11:59.986Z,21.12
2018-07-07T22:14:27.318Z,21.21
2018-07-07T22:16:54.631Z,21.14
2018-07-07T22:19:22.020Z,21.08
2018-07-07T22:21:56.299Z,21.03
2018-07-07T22:24:23.863Z,20.98
2018-07-07T22:26:56.483Z,20.86
2018-07-07T22:29:23.952Z,20.80
2018-07-07T22:31:51.350Z,20.79
2018-07-07T22:34:18.664Z,20.75
2018-07-07T22:36:45.982Z,20.75
2018-07-07T22:39:13.377Z,20.80
2018-07-07T22:41:52.880Z,20.76
2018-07-07T22:44:20.535Z,20.82
2018-07-07T22:46:47.894Z,20.83
2018-07-07T22:49:15.387Z,20.79
2018-07-07T22:51:42.790Z,20.74
2018-07-07T22:54:10.284Z,20.64
2018-07-07T22:56:37.669Z,20.34
2018-07-07T22:59:05.063Z,20.16
2018-07-07T23:01:32.340Z,20.00
2018-07-07T23:03:59.726Z,19.96
2018-07-07T23:06:27.088Z,19.81
2018-07-07T23:08:54.395Z,19.79
2018-07-07T23:11:21.967Z,19.74
2018-07-07T23:13:49.459Z,19.76
2018-07-07T23:16:16.978Z,19.68
2018-07-07T23:18:44.344Z,19.65
2018-07-07T23:21:11.659Z,19.64
2018-07-07T23:23:38.959Z,19.69
2018-07-07T23:26:06.195Z,19.75
2018-07-07T23:28:33.493Z,19.70
2018-07-07T23:31:00.850Z,19.70
2018-07-07T23:33:28.174Z,19.73
2018-07-07T23:35:55.617Z,19.67
2018-07-07T23:38:22.937Z,19.62
2018-07-07T23:40:50.329Z,19.66
2018-07-07T23:43:17.657Z,19.72
2018-07-07T23:45:44.893Z,19.80
2018-07-07T23:48:12.196Z,19.83
2018-07-07T23:50:39.506Z,19.75
2018-07-07T23:53:06.867Z,19.69
2018-07-07T23:55:34.387Z,19.61
2018-07-07T23:58:01.719Z,19.53
